sensor_id;sensor_type;location;lat;lon;timestamp;P1;durP1;ratioP1;P2;durP2;ratioP2
1701;SDS011;848;48.354;10.064;2022-07-22T00:00:41;14.13;;;11.32;;
1701;SDS011;848;48.354;10.064;2022-07-22T00:03:08;13.27;;;10.90;;
1701;SDS011;848;48.354;10.064;2022-07-22T00:05:34;12.57;;;10.25;;
1701;SDS011;848;48.354;10.064;2022-07-22T00:08:01;10.30;;;9.25;;
1701;SDS011;848;48.354;10.064;2022-07-22T00:10:33;16.88;;;9.75;;
1701;SDS011;848;48.354;10.064;2022-07-22T00:12:59;13.85;;;10.90;;
1701;SDS011;848;48.354;10.064;2022-07-22T00:15:26;12.75;;;10.73;;
1701;SDS011;848;48.354;10.064;2022-07-22T00:17:55;11.45;;;10.05;;
1701;SDS011;848;48.354;10.064;2022-07-22T00:20:22;13.80;;;10.23;;
1701;SDS011;848;48.354;10.064;2022-07-22T00:22:48;10.98;;;9.85;;
1701;SDS011;848;48.354;10.064;2022-07-22T00:25:15;11.85;;;10.60;;
1701;SDS011;848;48.354;10.064;2022-07-22T00:27:44;13.88;;;9.93;;
1701;SDS011;848;48.354;10.064;2022-07-22T00:30:11;18.70;;;11.05;;
1701;SDS011;848;48.354;10.064;2022-07-22T00:32:38;17.48;;;11.82;;
1701;SDS011;848;48.354;10.064;2022-07-22T00:35:06;17.92;;;10.13;;
1701;SDS011;848;48.354;10.064;2022-07-22T00:37:33;11.07;;;9.23;;
1701;SDS011;848;48.354;10.064;2022-07-22T00:40:00;12.63;;;10.45;;
1701;SDS011;848;48.354;10.064;2022-07-22T00:42:27;16.70;;;10.38;;
1701;SDS011;848;48.354;10.064;2022-07-22T00:44:58;12.05;;;10.75;;
1701;SDS011;848;48.354;10.064;2022-07-22T00:47:25;13.10;;;10.40;;
1701;SDS011;848;48.354;10.064;2022-07-22T00:49:52;16.20;;;12.02;;
1701;SDS011;848;48.354;10.064;2022-07-22T00:52:19;19.50;;;10.80;;
1701;SDS011;848;48.354;10.064;2022-07-22T00:54:47;20.45;;;12.40;;
1701;SDS011;848;48.354;10.064;2022-07-22T00:57:15;15.50;;;12.75;;
1701;SDS011;848;48.354;10.064;2022-07-22T00:59:42;15.65;;;12.93;;
1701;SDS011;848;48.354;10.064;2022-07-22T01:02:10;12.77;;;10.73;;
1701;SDS011;848;48.354;10.064;2022-07-22T01:04:37;13.48;;;9.98;;
1701;SDS011;848;48.354;10.064;2022-07-22T01:07:05;14.07;;;10.85;;
1701;SDS011;848;48.354;10.064;2022-07-22T01:09:32;14.00;;;11.00;;
1701;SDS011;848;48.354;10.064;2022-07-22T01:11:59;12.07;;;10.25;;
1701;SDS011;848;48.354;10.064;2022-07-22T01:14:30;19.30;;;12.73;;
1701;SDS011;848;48.354;10.064;2022-07-22T01:16:57;22.40;;;13.50;;
1701;SDS011;848;48.354;10.064;2022-07-22T01:19:25;17.90;;;11.85;;
1701;SDS011;848;48.354;10.064;2022-07-22T01:21:54;22.42;;;13.88;;
1701;SDS011;848;48.354;10.064;2022-07-22T01:24:21;13.90;;;11.20;;
1701;SDS011;848;48.354;10.064;2022-07-22T01:26:48;12.57;;;10.90;;
1701;SDS011;848;48.354;10.064;2022-07-22T01:29:14;13.60;;;10.35;;
1701;SDS011;848;48.354;10.064;2022-07-22T01:31:41;14.40;;;11.07;;
1701;SDS011;848;48.354;10.064;2022-07-22T01:34:12;25.13;;;14.90;;
1701;SDS011;848;48.354;10.064;2022-07-22T01:36:39;19.05;;;13.52;;
1701;SDS011;848;48.354;10.064;2022-07-22T01:39:07;19.75;;;12.93;;
1701;SDS011;848;48.354;10.064;2022-07-22T01:41:34;20.50;;;14.23;;
1701;SDS011;848;48.354;10.064;2022-07-22T01:44:01;15.80;;;11.70;;
1701;SDS011;848;48.354;10.064;2022-07-22T01:46:28;20.30;;;14.48;;
1701;SDS011;848;48.354;10.064;2022-07-22T01:48:55;15.15;;;13.43;;
1701;SDS011;848;48.354;10.064;2022-07-22T01:51:22;18.30;;;15.27;;
1701;SDS011;848;48.354;10.064;2022-07-22T01:53:49;21.08;;;15.07;;
1701;SDS011;848;48.354;10.064;2022-07-22T01:56:18;16.52;;;14.27;;
1701;SDS011;848;48.354;10.064;2022-07-22T01:58:47;23.98;;;13.77;;
1701;SDS011;848;48.354;10.064;2022-07-22T02:01:13;26.92;;;19.35;;
1701;SDS011;848;48.354;10.064;2022-07-22T02:03:40;28.05;;;19.83;;
1701;SDS011;848;48.354;10.064;2022-07-22T02:06:07;16.20;;;13.35;;
1701;SDS011;848;48.354;10.064;2022-07-22T02:08:34;22.02;;;14.25;;
1701;SDS011;848;48.354;10.064;2022-07-22T02:11:01;13.13;;;11.05;;
1701;SDS011;848;48.354;10.064;2022-07-22T02:13:29;18.20;;;10.88;;
1701;SDS011;848;48.354;10.064;2022-07-22T02:15:56;15.57;;;11.38;;
1701;SDS011;848;48.354;10.064;2022-07-22T02:18:23;13.27;;;10.63;;
1701;SDS011;848;48.354;10.064;2022-07-22T02:20:51;14.90;;;10.57;;
1701;SDS011;848;48.354;10.064;2022-07-22T02:23:18;15.48;;;12.02;;
1701;SDS011;848;48.354;10.064;2022-07-22T02:25:46;18.95;;;11.07;;
1701;SDS011;848;48.354;10.064;2022-07-22T02:28:13;12.38;;;11.07;;
1701;SDS011;848;48.354;10.064;2022-07-22T02:30:41;14.18;;;10.95;;
1701;SDS011;848;48.354;10.064;2022-07-22T02:33:08;11.38;;;10.18;;
1701;SDS011;848;48.354;10.064;2022-07-22T02:35:36;12.65;;;10.27;;
1701;SDS011;848;48.354;10.064;2022-07-22T02:38:02;13.23;;;9.45;;
1701;SDS011;848;48.354;10.064;2022-07-22T02:40:29;15.13;;;10.95;;
1701;SDS011;848;48.354;10.064;2022-07-22T02:42:56;12.30;;;10.30;;
1701;SDS011;848;48.354;10.064;2022-07-22T02:45:23;12.55;;;9.35;;
1701;SDS011;848;48.354;10.064;2022-07-22T02:47:52;18.60;;;10.10;;
1701;SDS011;848;48.354;10.064;2022-07-22T02:50:21;12.07;;;9.20;;
1701;SDS011;848;48.354;10.064;2022-07-22T02:52:48;12.82;;;10.00;;
1701;SDS011;848;48.354;10.064;2022-07-22T02:55:15;14.80;;;9.43;;
1701;SDS011;848;48.354;10.064;2022-07-22T02:57:43;17.98;;;9.70;;
1701;SDS011;848;48.354;10.064;2022-07-22T03:00:11;14.02;;;11.10;;
1701;SDS011;848;48.354;10.064;2022-07-22T03:02:39;13.95;;;9.80;;
1701;SDS011;848;48.354;10.064;2022-07-22T03:05:08;11.20;;;9.80;;
1701;SDS011;848;48.354;10.064;2022-07-22T03:07:35;10.52;;;9.10;;
1701;SDS011;848;48.354;10.064;2022-07-22T03:10:03;14.88;;;10.15;;
1701;SDS011;848;48.354;10.064;2022-07-22T03:12:30;13.40;;;10.05;;
1701;SDS011;848;48.354;10.064;2022-07-22T03:14:57;11.43;;;9.95;;
1701;SDS011;848;48.354;10.064;2022-07-22T03:17:24;14.27;;;11.23;;
1701;SDS011;848;48.354;10.064;2022-07-22T03:19:51;11.93;;;10.63;;
1701;SDS011;848;48.354;10.064;2022-07-22T03:22:19;11.32;;;9.98;;
1701;SDS011;848;48.354;10.064;2022-07-22T03:24:46;14.38;;;10.55;;
1701;SDS011;848;48.354;10.064;2022-07-22T03:27:13;14.05;;;10.18;;
1701;SDS011;848;48.354;10.064;2022-07-22T03:29:40;13.90;;;10.85;;
1701;SDS011;848;48.354;10.064;2022-07-22T03:32:07;18.50;;;10.95;;
1701;SDS011;848;48.354;10.064;2022-07-22T03:34:34;12.63;;;9.95;;
1701;SDS011;848;48.354;10.064;2022-07-22T03:37:01;12.20;;;10.18;;
1701;SDS011;848;48.354;10.064;2022-07-22T03:39:30;19.98;;;9.93;;
1701;SDS011;848;48.354;10.064;2022-07-22T03:41:56;12.57;;;9.63;;
1701;SDS011;848;48.354;10.064;2022-07-22T03:44:23;12.88;;;10.32;;
1701;SDS011;848;48.354;10.064;2022-07-22T03:46:50;15.65;;;10.73;;
1701;SDS011;848;48.354;10.064;2022-07-22T03:49:17;21.33;;;10.85;;
1701;SDS011;848;48.354;10.064;2022-07-22T03:51:44;15.25;;;10.52;;
1701;SDS011;848;48.354;10.064;2022-07-22T03:54:11;14.05;;;11.50;;
1701;SDS011;848;48.354;10.064;2022-07-22T03:56:40;23.58;;;10.57;;
1701;SDS011;848;48.354;10.064;2022-07-22T03:59:07;18.73;;;10.73;;
1701;SDS011;848;48.354;10.064;2022-07-22T04:01:34;18.13;;;11.50;;
1701;SDS011;848;48.354;10.064;2022-07-22T04:04:01;17.73;;;12.70;;
1701;SDS011;848;48.354;10.064;2022-07-22T04:06:28;15.55;;;10.77;;
1701;SDS011;848;48.354;10.064;2022-07-22T04:08:55;15.95;;;11.07;;
1701;SDS011;848;48.354;10.064;2022-07-22T04:11:22;16.25;;;10.75;;
1701;SDS011;848;48.354;10.064;2022-07-22T04:13:50;16.48;;;11.65;;
1701;SDS011;848;48.354;10.064;2022-07-22T04:16:17;17.27;;;11.80;;
1701;SDS011;848;48.354;10.064;2022-07-22T04:18:44;16.15;;;11.38;;
1701;SDS011;848;48.354;10.064;2022-07-22T04:21:11;21.80;;;12.20;;
1701;SDS011;848;48.354;10.064;2022-07-22T04:23:38;12.65;;;10.32;;
1701;SDS011;848;48.354;10.064;2022-07-22T04:26:07;22.25;;;11.80;;
1701;SDS011;848;48.354;10.064;2022-07-22T04:28:34;22.75;;;11.80;;
1701;SDS011;848;48.354;10.064;2022-07-22T04:31:02;18.10;;;10.63;;
1701;SDS011;848;48.354;10.064;2022-07-22T04:33:30;15.38;;;10.23;;
1701;SDS011;848;48.354;10.064;2022-07-22T04:35:57;15.15;;;11.40;;
1701;SDS011;848;48.354;10.064;2022-07-22T04:38:24;17.35;;;11.57;;
1701;SDS011;848;48.354;10.064;2022-07-22T04:40:51;14.50;;;10.50;;
1701;SDS011;848;48.354;10.064;2022-07-22T04:43:18;16.70;;;11.40;;
1701;SDS011;848;48.354;10.064;2022-07-22T04:45:45;13.30;;;10.82;;
1701;SDS011;848;48.354;10.064;2022-07-22T04:48:13;17.75;;;11.45;;
1701;SDS011;848;48.354;10.064;2022-07-22T04:50:40;15.65;;;11.07;;
1701;SDS011;848;48.354;10.064;2022-07-22T04:53:07;20.95;;;12.65;;
1701;SDS011;848;48.354;10.064;2022-07-22T04:55:34;16.17;;;12.23;;
1701;SDS011;848;48.354;10.064;2022-07-22T04:58:01;15.10;;;12.82;;
1701;SDS011;848;48.354;10.064;2022-07-22T05:00:31;15.38;;;12.52;;
1701;SDS011;848;48.354;10.064;2022-07-22T05:02:59;16.70;;;13.27;;
1701;SDS011;848;48.354;10.064;2022-07-22T05:05:28;16.52;;;13.65;;
1701;SDS011;848;48.354;10.064;2022-07-22T05:07:55;18.42;;;13.32;;
1701;SDS011;848;48.354;10.064;2022-07-22T05:10:22;20.75;;;13.68;;
1701;SDS011;848;48.354;10.064;2022-07-22T05:12:49;17.83;;;13.73;;
1701;SDS011;848;48.354;10.064;2022-07-22T05:15:15;18.40;;;13.98;;
1701;SDS011;848;48.354;10.064;2022-07-22T05:17:42;19.60;;;14.80;;
1701;SDS011;848;48.354;10.064;2022-07-22T05:20:10;21.38;;;15.25;;
1701;SDS011;848;48.354;10.064;2022-07-22T05:22:39;16.75;;;13.95;;
1701;SDS011;848;48.354;10.064;2022-07-22T05:25:07;16.38;;;13.63;;
1701;SDS011;848;48.354;10.064;2022-07-22T05:27:34;16.48;;;14.07;;
1701;SDS011;848;48.354;10.064;2022-07-22T05:30:01;19.00;;;16.20;;
1701;SDS011;848;48.354;10.064;2022-07-22T05:32:29;17.17;;;14.05;;
1701;SDS011;848;48.354;10.064;2022-07-22T05:34:56;17.02;;;14.00;;
1701;SDS011;848;48.354;10.064;2022-07-22T05:37:23;21.00;;;14.70;;
1701;SDS011;848;48.354;10.064;2022-07-22T05:39:51;20.40;;;15.75;;
1701;SDS011;848;48.354;10.064;2022-07-22T05:42:18;21.70;;;14.88;;
1701;SDS011;848;48.354;10.064;2022-07-22T05:44:45;17.38;;;14.25;;
1701;SDS011;848;48.354;10.064;2022-07-22T05:47:12;17.25;;;14.25;;
1701;SDS011;848;48.354;10.064;2022-07-22T05:49:39;20.55;;;14.18;;
1701;SDS011;848;48.354;10.064;2022-07-22T05:52:05;18.65;;;15.77;;
1701;SDS011;848;48.354;10.064;2022-07-22T05:54:32;16.77;;;14.80;;
1701;SDS011;848;48.354;10.064;2022-07-22T05:57:01;16.63;;;14.68;;
1701;SDS011;848;48.354;10.064;2022-07-22T05:59:28;16.38;;;14.23;;
1701;SDS011;848;48.354;10.064;2022-07-22T06:01:55;15.63;;;13.88;;
1701;SDS011;848;48.354;10.064;2022-07-22T06:04:22;17.35;;;14.13;;
1701;SDS011;848;48.354;10.064;2022-07-22T06:06:49;15.82;;;13.85;;
1701;SDS011;848;48.354;10.064;2022-07-22T06:09:16;16.45;;;14.85;;
1701;SDS011;848;48.354;10.064;2022-07-22T06:11:42;20.13;;;13.85;;
1701;SDS011;848;48.354;10.064;2022-07-22T06:14:11;16.65;;;14.35;;
1701;SDS011;848;48.354;10.064;2022-07-22T06:16:38;16.52;;;14.73;;
1701;SDS011;848;48.354;10.064;2022-07-22T06:19:05;14.52;;;13.02;;
1701;SDS011;848;48.354;10.064;2022-07-22T06:21:31;16.13;;;13.90;;
1701;SDS011;848;48.354;10.064;2022-07-22T06:23:58;16.63;;;14.98;;
1701;SDS011;848;48.354;10.064;2022-07-22T06:26:25;16.25;;;13.77;;
1701;SDS011;848;48.354;10.064;2022-07-22T06:28:53;16.40;;;14.80;;
1701;SDS011;848;48.354;10.064;2022-07-22T06:31:21;15.88;;;13.98;;
1701;SDS011;848;48.354;10.064;2022-07-22T06:33:48;15.82;;;14.23;;
1701;SDS011;848;48.354;10.064;2022-07-22T06:36:17;18.67;;;14.35;;
1701;SDS011;848;48.354;10.064;2022-07-22T06:38:44;17.63;;;13.93;;
1701;SDS011;848;48.354;10.064;2022-07-22T06:41:12;14.70;;;13.20;;
1701;SDS011;848;48.354;10.064;2022-07-22T06:43:39;16.33;;;14.67;;
1701;SDS011;848;48.354;10.064;2022-07-22T06:46:06;14.27;;;11.97;;
1701;SDS011;848;48.354;10.064;2022-07-22T06:48:35;15.23;;;13.00;;
1701;SDS011;848;48.354;10.064;2022-07-22T06:51:02;14.33;;;12.40;;
1701;SDS011;848;48.354;10.064;2022-07-22T06:53:29;13.27;;;11.90;;
1701;SDS011;848;48.354;10.064;2022-07-22T06:55:56;11.80;;;10.60;;
1701;SDS011;848;48.354;10.064;2022-07-22T06:58:23;13.07;;;11.70;;
1701;SDS011;848;48.354;10.064;2022-07-22T07:00:50;12.50;;;10.80;;
1701;SDS011;848;48.354;10.064;2022-07-22T07:03:17;12.27;;;11.17;;
1701;SDS011;848;48.354;10.064;2022-07-22T07:05:45;9.87;;;8.93;;
1701;SDS011;848;48.354;10.064;2022-07-22T07:08:12;13.07;;;10.70;;
1701;SDS011;848;48.354;10.064;2022-07-22T07:10:39;11.47;;;10.47;;
1701;SDS011;848;48.354;10.064;2022-07-22T07:13:06;10.37;;;9.17;;
1701;SDS011;848;48.354;10.064;2022-07-22T07:15:33;11.10;;;9.87;;
1701;SDS011;848;48.354;10.064;2022-07-22T07:18:00;13.27;;;9.57;;
1701;SDS011;848;48.354;10.064;2022-07-22T07:20:27;10.93;;;9.80;;
1701;SDS011;848;48.354;10.064;2022-07-22T07:22:55;9.50;;;8.60;;
1701;SDS011;848;48.354;10.064;2022-07-22T07:25:25;11.63;;;10.43;;
1701;SDS011;848;48.354;10.064;2022-07-22T07:27:52;15.73;;;9.77;;
1701;SDS011;848;48.354;10.064;2022-07-22T07:30:19;11.27;;;9.67;;
1701;SDS011;848;48.354;10.064;2022-07-22T07:32:47;11.70;;;9.87;;
1701;SDS011;848;48.354;10.064;2022-07-22T07:35:14;9.97;;;8.97;;
1701;SDS011;848;48.354;10.064;2022-07-22T07:37:41;11.83;;;9.37;;
1701;SDS011;848;48.354;10.064;2022-07-22T07:40:10;10.07;;;9.07;;
1701;SDS011;848;48.354;10.064;2022-07-22T07:42:37;11.00;;;9.90;;
1701;SDS011;848;48.354;10.064;2022-07-22T07:45:04;11.70;;;10.60;;
1701;SDS011;848;48.354;10.064;2022-07-22T07:47:32;11.77;;;10.70;;
1701;SDS011;848;48.354;10.064;2022-07-22T07:49:59;11.00;;;9.90;;
1701;SDS011;848;48.354;10.064;2022-07-22T07:52:27;11.17;;;10.17;;
1701;SDS011;848;48.354;10.064;2022-07-22T07:54:54;10.90;;;9.80;;
1701;SDS011;848;48.354;10.064;2022-07-22T07:57:23;11.23;;;9.47;;
1701;SDS011;848;48.354;10.064;2022-07-22T07:59:49;10.27;;;9.27;;
1701;SDS011;848;48.354;10.064;2022-07-22T08:02:16;9.40;;;8.50;;
1701;SDS011;848;48.354;10.064;2022-07-22T08:04:43;10.20;;;9.20;;
1701;SDS011;848;48.354;10.064;2022-07-22T08:07:10;10.33;;;9.33;;
1701;SDS011;848;48.354;10.064;2022-07-22T08:09:37;10.20;;;9.20;;
1701;SDS011;848;48.354;10.064;2022-07-22T08:12:04;8.83;;;7.93;;
1701;SDS011;848;48.354;10.064;2022-07-22T08:14:33;10.27;;;9.37;;
1701;SDS011;848;48.354;10.064;2022-07-22T08:17:00;10.37;;;9.27;;
1701;SDS011;848;48.354;10.064;2022-07-22T08:19:27;10.23;;;9.17;;
1701;SDS011;848;48.354;10.064;2022-07-22T08:21:54;10.17;;;8.60;;
1701;SDS011;848;48.354;10.064;2022-07-22T08:24:21;9.13;;;8.40;;
1701;SDS011;848;48.354;10.064;2022-07-22T08:26:50;11.37;;;10.23;;
1701;SDS011;848;48.354;10.064;2022-07-22T08:29:17;9.87;;;8.90;;
1701;SDS011;848;48.354;10.064;2022-07-22T08:31:45;11.27;;;10.17;;
1701;SDS011;848;48.354;10.064;2022-07-22T08:34:15;12.47;;;9.10;;
1701;SDS011;848;48.354;10.064;2022-07-22T08:36:43;10.47;;;9.50;;
1701;SDS011;848;48.354;10.064;2022-07-22T08:39:09;10.13;;;8.97;;
1701;SDS011;848;48.354;10.064;2022-07-22T08:41:39;10.30;;;9.30;;
1701;SDS011;848;48.354;10.064;2022-07-22T08:44:06;10.30;;;9.30;;
1701;SDS011;848;48.354;10.064;2022-07-22T08:46:37;9.57;;;8.60;;
1701;SDS011;848;48.354;10.064;2022-07-22T08:49:05;11.80;;;8.70;;
1701;SDS011;848;48.354;10.064;2022-07-22T08:51:32;8.87;;;8.07;;
1701;SDS011;848;48.354;10.064;2022-07-22T08:53:59;9.80;;;9.00;;
1701;SDS011;848;48.354;10.064;2022-07-22T08:56:30;9.97;;;9.17;;
1701;SDS011;848;48.354;10.064;2022-07-22T08:59:00;9.87;;;8.97;;
1701;SDS011;848;48.354;10.064;2022-07-22T09:01:27;9.30;;;8.50;;
1701;SDS011;848;48.354;10.064;2022-07-22T09:03:55;16.07;;;8.60;;
1701;SDS011;848;48.354;10.064;2022-07-22T09:06:25;10.17;;;9.23;;
1701;SDS011;848;48.354;10.064;2022-07-22T09:08:59;10.07;;;9.17;;
1701;SDS011;848;48.354;10.064;2022-07-22T09:11:27;9.70;;;8.70;;
1701;SDS011;848;48.354;10.064;2022-07-22T09:13:56;10.10;;;9.20;;
1701;SDS011;848;48.354;10.064;2022-07-22T09:19:13;10.50;;;9.50;;
1701;SDS011;848;48.354;10.064;2022-07-22T09:21:42;11.57;;;10.57;;
1701;SDS011;848;48.354;10.064;2022-07-22T09:24:25;10.37;;;9.27;;
1701;SDS011;848;48.354;10.064;2022-07-22T09:26:54;9.97;;;9.17;;
1701;SDS011;848;48.354;10.064;2022-07-22T09:29:22;8.90;;;8.20;;
1701;SDS011;848;48.354;10.064;2022-07-22T09:31:52;11.73;;;9.50;;
1701;SDS011;848;48.354;10.064;2022-07-22T09:34:25;10.77;;;9.77;;
1701;SDS011;848;48.354;10.064;2022-07-22T09:36:55;10.60;;;9.60;;
1701;SDS011;848;48.354;10.064;2022-07-22T09:39:26;11.77;;;10.67;;
1701;SDS011;848;48.354;10.064;2022-07-22T09:41:57;10.67;;;9.53;;
1701;SDS011;848;48.354;10.064;2022-07-22T09:44:25;11.20;;;10.03;;
1701;SDS011;848;48.354;10.064;2022-07-22T09:46:52;13.60;;;9.90;;
1701;SDS011;848;48.354;10.064;2022-07-22T09:49:29;10.43;;;9.37;;
1701;SDS011;848;48.354;10.064;2022-07-22T09:52:01;10.43;;;9.43;;
1701;SDS011;848;48.354;10.064;2022-07-22T09:56:54;11.60;;;10.13;;
1701;SDS011;848;48.354;10.064;2022-07-22T09:59:21;10.17;;;9.27;;
1701;SDS011;848;48.354;10.064;2022-07-22T10:01:50;9.97;;;9.07;;
1701;SDS011;848;48.354;10.064;2022-07-22T10:04:20;9.03;;;8.13;;
1701;SDS011;848;48.354;10.064;2022-07-22T10:06:50;10.47;;;9.47;;
1701;SDS011;848;48.354;10.064;2022-07-22T10:09:18;9.10;;;8.30;;
1701;SDS011;848;48.354;10.064;2022-07-22T10:11:48;9.90;;;8.90;;
1701;SDS011;848;48.354;10.064;2022-07-22T10:14:16;11.10;;;8.40;;
1701;SDS011;848;48.354;10.064;2022-07-22T10:16:44;11.63;;;8.60;;
1701;SDS011;848;48.354;10.064;2022-07-22T10:19:11;9.30;;;8.40;;
1701;SDS011;848;48.354;10.064;2022-07-22T10:21:39;8.80;;;8.00;;
1701;SDS011;848;48.354;10.064;2022-07-22T10:24:07;8.70;;;7.83;;
1701;SDS011;848;48.354;10.064;2022-07-22T10:26:47;8.77;;;7.90;;
1701;SDS011;848;48.354;10.064;2022-07-22T10:29:28;8.20;;;7.50;;
1701;SDS011;848;48.354;10.064;2022-07-22T10:38:00;9.80;;;8.80;;
1701;SDS011;848;48.354;10.064;2022-07-22T10:40:29;9.37;;;8.30;;
1701;SDS011;848;48.354;10.064;2022-07-22T10:43:12;9.37;;;8.47;;
1701;SDS011;848;48.354;10.064;2022-07-22T10:45:41;10.97;;;9.67;;
1701;SDS011;848;48.354;10.064;2022-07-22T10:48:11;9.33;;;8.53;;
1701;SDS011;848;48.354;10.064;2022-07-22T10:53:38;10.00;;;9.00;;
1701;SDS011;848;48.354;10.064;2022-07-22T10:56:12;9.93;;;9.07;;
1701;SDS011;848;48.354;10.064;2022-07-22T10:58:54;8.57;;;7.77;;
1701;SDS011;848;48.354;10.064;2022-07-22T11:01:24;9.00;;;7.60;;
1701;SDS011;848;48.354;10.064;2022-07-22T11:03:53;14.03;;;8.90;;
1701;SDS011;848;48.354;10.064;2022-07-22T11:06:23;13.70;;;9.23;;
1701;SDS011;848;48.354;10.064;2022-07-22T11:08:53;10.00;;;9.00;;
1701;SDS011;848;48.354;10.064;2022-07-22T11:11:31;8.77;;;7.97;;
1701;SDS011;848;48.354;10.064;2022-07-22T11:14:01;9.93;;;8.97;;
1701;SDS011;848;48.354;10.064;2022-07-22T11:16:28;10.30;;;8.60;;
1701;SDS011;848;48.354;10.064;2022-07-22T11:18:55;12.10;;;8.20;;
1701;SDS011;848;48.354;10.064;2022-07-22T11:21:24;9.40;;;8.60;;
1701;SDS011;848;48.354;10.064;2022-07-22T11:23:55;16.23;;;9.13;;
1701;SDS011;848;48.354;10.064;2022-07-22T11:26:25;8.33;;;7.63;;
1701;SDS011;848;48.354;10.064;2022-07-22T11:28:57;10.20;;;9.20;;
1701;SDS011;848;48.354;10.064;2022-07-22T11:31:26;9.90;;;9.00;;
1701;SDS011;848;48.354;10.064;2022-07-22T11:34:03;9.70;;;8.73;;
1701;SDS011;848;48.354;10.064;2022-07-22T11:36:32;9.37;;;8.37;;
1701;SDS011;848;48.354;10.064;2022-07-22T11:38:59;11.00;;;9.17;;
1701;SDS011;848;48.354;10.064;2022-07-22T11:41:28;9.70;;;8.83;;
1701;SDS011;848;48.354;10.064;2022-07-22T11:43:56;9.50;;;8.50;;
1701;SDS011;848;48.354;10.064;2022-07-22T11:46:24;10.03;;;9.13;;
1701;SDS011;848;48.354;10.064;2022-07-22T11:48:53;9.30;;;8.40;;
1701;SDS011;848;48.354;10.064;2022-07-22T11:51:23;11.30;;;8.10;;
1701;SDS011;848;48.354;10.064;2022-07-22T11:53:57;8.73;;;8.00;;
1701;SDS011;848;48.354;10.064;2022-07-22T11:56:28;9.13;;;8.23;;
1701;SDS011;848;48.354;10.064;2022-07-22T11:58:55;8.13;;;7.37;;
1701;SDS011;848;48.354;10.064;2022-07-22T12:01:23;9.90;;;8.93;;
1701;SDS011;848;48.354;10.064;2022-07-22T12:03:53;10.00;;;9.00;;
1701;SDS011;848;48.354;10.064;2022-07-22T12:06:22;9.43;;;8.53;;
1701;SDS011;848;48.354;10.064;2022-07-22T12:08:51;9.50;;;8.57;;
1701;SDS011;848;48.354;10.064;2022-07-22T12:11:21;8.30;;;7.57;;
1701;SDS011;848;48.354;10.064;2022-07-22T12:13:49;7.77;;;7.07;;
1701;SDS011;848;48.354;10.064;2022-07-22T12:16:22;9.10;;;8.30;;
1701;SDS011;848;48.354;10.064;2022-07-22T12:18:56;11.87;;;9.47;;
1701;SDS011;848;48.354;10.064;2022-07-22T12:21:25;9.07;;;8.27;;
1701;SDS011;848;48.354;10.064;2022-07-22T12:23:54;20.00;;;16.90;;
1701;SDS011;848;48.354;10.064;2022-07-22T12:26:39;9.03;;;8.23;;
1701;SDS011;848;48.354;10.064;2022-07-22T12:29:21;9.57;;;8.67;;
1701;SDS011;848;48.354;10.064;2022-07-22T12:31:49;9.60;;;7.87;;
1701;SDS011;848;48.354;10.064;2022-07-22T12:34:29;8.70;;;7.80;;
1701;SDS011;848;48.354;10.064;2022-07-22T12:36:58;8.73;;;7.93;;
1701;SDS011;848;48.354;10.064;2022-07-22T12:39:27;11.00;;;7.87;;
1701;SDS011;848;48.354;10.064;2022-07-22T12:41:54;10.37;;;8.10;;
1701;SDS011;848;48.354;10.064;2022-07-22T12:44:22;8.90;;;8.10;;
1701;SDS011;848;48.354;10.064;2022-07-22T12:46:51;8.50;;;7.80;;
1701;SDS011;848;48.354;10.064;2022-07-22T12:49:20;8.17;;;7.37;;
1701;SDS011;848;48.354;10.064;2022-07-22T12:52:08;8.57;;;7.77;;
1701;SDS011;848;48.354;10.064;2022-07-22T12:54:37;7.80;;;7.00;;
1701;SDS011;848;48.354;10.064;2022-07-22T12:57:05;7.93;;;7.23;;
1701;SDS011;848;48.354;10.064;2022-07-22T12:59:33;8.17;;;7.37;;
1701;SDS011;848;48.354;10.064;2022-07-22T13:02:01;9.67;;;8.13;;
1701;SDS011;848;48.354;10.064;2022-07-22T13:04:28;8.20;;;7.47;;
1701;SDS011;848;48.354;10.064;2022-07-22T13:06:57;8.80;;;7.90;;
1701;SDS011;848;48.354;10.064;2022-07-22T13:09:25;8.73;;;7.93;;
1701;SDS011;848;48.354;10.064;2022-07-22T13:11:52;8.90;;;8.00;;
1701;SDS011;848;48.354;10.064;2022-07-22T13:14:19;9.87;;;8.97;;
1701;SDS011;848;48.354;10.064;2022-07-22T13:16:47;8.60;;;7.80;;
1701;SDS011;848;48.354;10.064;2022-07-22T13:19:14;8.70;;;7.93;;
1701;SDS011;848;48.354;10.064;2022-07-22T13:21:42;8.43;;;7.60;;
1701;SDS011;848;48.354;10.064;2022-07-22T13:24:09;8.37;;;7.47;;
1701;SDS011;848;48.354;10.064;2022-07-22T13:26:39;9.00;;;8.10;;
1701;SDS011;848;48.354;10.064;2022-07-22T13:29:06;8.53;;;7.60;;
1701;SDS011;848;48.354;10.064;2022-07-22T13:31:37;8.33;;;7.63;;
1701;SDS011;848;48.354;10.064;2022-07-22T13:34:04;8.87;;;8.17;;
1701;SDS011;848;48.354;10.064;2022-07-22T13:36:30;9.27;;;7.37;;
1701;SDS011;848;48.354;10.064;2022-07-22T13:38:59;7.30;;;6.70;;
1701;SDS011;848;48.354;10.064;2022-07-22T13:41:30;10.17;;;7.80;;
1701;SDS011;848;48.354;10.064;2022-07-22T13:43:58;8.53;;;7.73;;
1701;SDS011;848;48.354;10.064;2022-07-22T13:46:25;8.07;;;7.37;;
1701;SDS011;848;48.354;10.064;2022-07-22T13:48:52;9.80;;;7.63;;
1701;SDS011;848;48.354;10.064;2022-07-22T13:51:19;8.00;;;7.30;;
1701;SDS011;848;48.354;10.064;2022-07-22T13:53:46;8.17;;;7.47;;
1701;SDS011;848;48.354;10.064;2022-07-22T13:56:13;8.80;;;8.00;;
1701;SDS011;848;48.354;10.064;2022-07-22T13:58:40;7.87;;;7.17;;
1701;SDS011;848;48.354;10.064;2022-07-22T14:01:09;8.80;;;8.00;;
1701;SDS011;848;48.354;10.064;2022-07-22T14:03:36;8.50;;;7.80;;
1701;SDS011;848;48.354;10.064;2022-07-22T14:06:04;8.30;;;7.60;;
1701;SDS011;848;48.354;10.064;2022-07-22T14:08:31;8.47;;;7.60;;
1701;SDS011;848;48.354;10.064;2022-07-22T14:10:58;8.43;;;7.53;;
1701;SDS011;848;48.354;10.064;2022-07-22T14:13:25;8.43;;;7.67;;
1701;SDS011;848;48.354;10.064;2022-07-22T14:15:52;9.03;;;7.50;;
1701;SDS011;848;48.354;10.064;2022-07-22T14:18:20;8.27;;;7.57;;
1701;SDS011;848;48.354;10.064;2022-07-22T14:20:47;10.00;;;8.40;;
1701;SDS011;848;48.354;10.064;2022-07-22T14:23:14;9.40;;;8.50;;
1701;SDS011;848;48.354;10.064;2022-07-22T14:25:46;9.07;;;8.17;;
1701;SDS011;848;48.354;10.064;2022-07-22T14:28:13;7.80;;;7.10;;
1701;SDS011;848;48.354;10.064;2022-07-22T14:30:39;10.90;;;8.00;;
1701;SDS011;848;48.354;10.064;2022-07-22T14:33:06;8.57;;;7.77;;
1701;SDS011;848;48.354;10.064;2022-07-22T14:35:37;9.87;;;8.87;;
1701;SDS011;848;48.354;10.064;2022-07-22T14:38:04;9.60;;;7.80;;
1701;SDS011;848;48.354;10.064;2022-07-22T14:40:31;8.70;;;8.00;;
1701;SDS011;848;48.354;10.064;2022-07-22T14:42:58;9.70;;;8.70;;
1701;SDS011;848;48.354;10.064;2022-07-22T14:45:25;8.20;;;7.43;;
1701;SDS011;848;48.354;10.064;2022-07-22T14:47:52;10.17;;;8.50;;
1701;SDS011;848;48.354;10.064;2022-07-22T14:50:21;8.47;;;7.60;;
1701;SDS011;848;48.354;10.064;2022-07-22T14:52:49;10.33;;;8.13;;
1701;SDS011;848;48.354;10.064;2022-07-22T14:55:16;8.70;;;6.80;;
1701;SDS011;848;48.354;10.064;2022-07-22T14:57:43;9.10;;;8.20;;
1701;SDS011;848;48.354;10.064;2022-07-22T15:00:10;8.07;;;7.37;;
1701;SDS011;848;48.354;10.064;2022-07-22T15:02:38;11.20;;;7.60;;
1701;SDS011;848;48.354;10.064;2022-07-22T15:05:05;8.60;;;7.30;;
1701;SDS011;848;48.354;10.064;2022-07-22T15:07:32;9.80;;;7.70;;
1701;SDS011;848;48.354;10.064;2022-07-22T15:10:00;8.50;;;7.73;;
1701;SDS011;848;48.354;10.064;2022-07-22T15:12:27;8.23;;;7.23;;
1701;SDS011;848;48.354;10.064;2022-07-22T15:14:55;8.27;;;7.43;;
1701;SDS011;848;48.354;10.064;2022-07-22T15:17:21;8.40;;;7.67;;
1701;SDS011;848;48.354;10.064;2022-07-22T15:19:48;8.70;;;7.80;;